Time;durP1;ratioP1;P1;durP2;ratioP2;P2;SDS_P1;SDS_P2;PMS_P1;PMS_P2;Temp;Humidity;BMP_temperature;BMP_pressure;BME280_temperature;BME280_humidity;BME280_pressure;Samples;Min_cycle;Max_cycle;Signal;HPM_P1;HPM_P2
2023/04/25 00:02:19;;;;;;;43.20;25.00;;;384.30;2329.60;;;;;;5050882;28;20013;-61
2023/04/25 00:04:45;;;;;;;15.38;9.20;;;384.10;2329.60;;;;;;5051796;28;20482;-62
2023/04/25 00:07:11;;;;;;;10.60;5.80;;;384.10;2329.60;;;;;;5051397;28;20028;-71
2023/04/25 00:09:37;;;;;;;5.22;3.90;;;384.10;2329.60;;;;;;5052034;28;20039;-62
2023/04/25 00:12:02;;;;;;;22.95;14.80;;;384.10;2329.60;;;;;;5051812;28;20017;-61
2023/04/25 00:14:30;;;;;;;33.03;22.33;;;384.10;2329.60;;;;;;5051463;28;20541;-71
2023/04/25 00:16:56;;;;;;;16.75;11.02;;;384.10;2329.60;;;;;;5051610;28;20009;-62
2023/04/25 00:19:21;;;;;;;22.20;11.57;;;384.10;2329.60;;;;;;5051347;28;20025;-61
2023/04/25 00:21:47;;;;;;;13.40;8.07;;;384.00;2329.60;;;;;;5051046;28;20021;-75
2023/04/25 00:24:13;;;;;;;6.28;3.85;;;384.00;2329.60;;;;;;5051324;28;20032;-61
2023/04/25 00:26:39;;;;;;;4.75;3.47;;;384.00;2329.60;;;;;;5024926;28;20194;-61
2023/04/25 00:29:04;;;;;;;5.95;3.30;;;359.30;2329.60;;;;;;5051506;28;20035;-70
2023/04/25 00:31:30;;;;;;;5.15;3.30;;;384.00;2329.60;;;;;;5038221;28;20013;-61
2023/04/25 00:33:56;;;;;;;8.65;3.85;;;359.30;2329.60;;;;;;5050973;28;20031;-72
2023/04/25 00:36:22;;;;;;;7.85;4.75;;;359.30;2329.60;;;;;;5051064;28;20051;-61
2023/04/25 00:38:47;;;;;;;7.07;4.45;;;384.00;2329.60;;;;;;5050724;28;20036;-67
2023/04/25 00:41:13;;;;;;;7.35;5.50;;;359.30;2329.60;;;;;;5051172;28;20029;-61
2023/04/25 00:43:40;;;;;;;9.57;5.68;;;359.30;2329.60;;;;;;5051028;28;20028;-61
2023/04/25 00:46:05;;;;;;;8.65;5.65;;;359.30;2329.60;;;;;;5024862;28;20115;-60
2023/04/25 00:48:31;;;;;;;13.13;8.32;;;359.20;2329.60;;;;;;5050981;28;20441;-62
2023/04/25 00:50:59;;;;;;;8.07;4.57;;;359.20;2329.60;;;;;;5023743;28;20055;-59
2023/04/25 00:53:26;;;;;;;7.15;4.68;;;359.10;2329.60;;;;;;5050418;28;20028;-69
2023/04/25 00:55:53;;;;;;;8.05;5.53;;;359.10;2329.60;;;;;;5051036;28;20044;-60
2023/04/25 00:58:19;;;;;;;9.57;4.07;;;359.00;2329.60;;;;;;5050632;28;20021;-63
2023/04/25 01:00:47;;;;;;;9.70;4.72;;;359.10;2329.60;;;;;;5050624;28;20083;-61
2023/04/25 01:03:19;;;;;;;8.95;4.82;;;359.10;2329.60;;;;;;5050848;28;20021;-72
2023/04/25 01:05:45;;;;;;;8.20;3.75;;;359.00;2329.60;;;;;;5050438;28;20490;-70
2023/04/25 01:08:12;;;;;;;7.85;4.13;;;359.00;2329.60;;;;;;5050030;28;20060;-63
2023/04/25 01:10:38;;;;;;;8.75;4.15;;;359.00;2329.60;;;;;;5050660;28;20021;-62
2023/04/25 01:13:04;;;;;;;5.68;3.00;;;359.00;2329.60;;;;;;5050415;28;20502;-62
2023/04/25 01:15:30;;;;;;;4.82;3.45;;;359.00;2329.60;;;;;;5049609;28;20075;-62
2023/04/25 01:17:58;;;;;;;5.25;3.35;;;359.10;2329.60;;;;;;5050002;28;20025;-73
2023/04/25 01:20:24;;;;;;;4.90;2.83;;;359.00;2329.60;;;;;;5050371;28;20063;-62
2023/04/25 01:22:52;;;;;;;5.90;4.05;;;359.00;2329.60;;;;;;5050109;28;20017;-73
2023/04/25 01:25:18;;;;;;;5.20;4.22;;;359.00;2329.60;;;;;;5050028;28;20403;-61
2023/04/25 01:27:44;;;;;;;6.00;3.53;;;359.00;2329.60;;;;;;5050059;28;20163;-62
2023/04/25 01:30:10;;;;;;;5.45;3.60;;;358.90;2329.60;;;;;;5050726;28;20039;-60
2023/04/25 01:32:39;;;;;;;5.00;3.80;;;359.00;2329.60;;;;;;5050064;28;20024;-72
2023/04/25 01:35:10;;;;;;;5.65;3.90;;;359.00;2329.60;;;;;;5050322;28;20043;-61
2023/04/25 01:37:40;;;;;;;5.97;4.05;;;359.00;2329.60;;;;;;5049546;28;20025;-61
2023/04/25 01:40:11;;;;;;;13.73;9.13;;;359.00;2329.60;;;;;;5049964;28;20082;-74
2023/04/25 01:42:38;;;;;;;10.32;7.57;;;359.00;2329.60;;;;;;5049892;28;20087;-62
2023/04/25 01:45:06;;;;;;;10.55;8.50;;;359.00;2329.60;;;;;;5050092;28;20029;-62
2023/04/25 01:47:32;;;;;;;5.60;4.53;;;359.00;2329.60;;;;;;5036846;28;20108;-63
2023/04/25 01:49:57;;;;;;;5.28;3.85;;;359.00;2329.60;;;;;;5049387;28;20112;-73
2023/04/25 01:52:23;;;;;;;5.43;3.65;;;358.90;2329.60;;;;;;5049337;28;20035;-60
2023/04/25 01:54:50;;;;;;;5.00;3.28;;;358.90;2329.60;;;;;;5049406;28;20062;-61
2023/04/25 01:57:16;;;;;;;4.75;3.33;;;358.90;2329.60;;;;;;5049827;28;20418;-70
2023/04/25 01:59:43;;;;;;;6.55;3.53;;;358.80;2329.60;;;;;;5039833;28;20032;-72
2023/04/25 02:02:09;;;;;;;8.35;3.58;;;358.80;2329.60;;;;;;5047653;28;20112;-62
2023/04/25 02:04:35;;;;;;;5.22;3.60;;;358.80;2329.60;;;;;;5049387;28;20108;-61
2023/04/25 02:07:01;;;;;;;6.50;3.75;;;358.80;2329.60;;;;;;5049016;28;20477;-61
2023/04/25 02:09:26;;;;;;;3.92;2.65;;;358.80;2329.60;;;;;;5049615;28;20053;-61
2023/04/25 02:11:53;;;;;;;5.28;2.70;;;358.80;2329.60;;;;;;5049552;28;20033;-61
2023/04/25 02:14:18;;;;;;;4.63;3.15;;;358.80;2329.60;;;;;;5049500;28;20025;-61
2023/04/25 02:16:44;;;;;;;7.35;2.55;;;358.80;2329.60;;;;;;5049085;28;20486;-71
2023/04/25 02:19:10;;;;;;;3.83;2.53;;;358.80;2329.60;;;;;;5049753;28;20063;-62
2023/04/25 02:21:36;;;;;;;5.13;2.92;;;358.80;2329.60;;;;;;5048768;28;20021;-71
2023/04/25 02:24:02;;;;;;;4.75;2.72;;;358.80;2329.60;;;;;;5049155;28;20082;-61
2023/04/25 02:26:28;;;;;;;5.28;3.15;;;358.80;2329.60;;;;;;5048752;28;20099;-61
2023/04/25 02:28:54;;;;;;;6.03;2.53;;;358.80;2329.60;;;;;;5049704;28;20098;-61
2023/04/25 02:31:20;;;;;;;4.15;2.95;;;358.80;2329.60;;;;;;5049220;28;20514;-61
2023/04/25 02:33:46;;;;;;;4.78;2.95;;;358.80;2329.60;;;;;;5048953;28;20387;-61
2023/04/25 02:36:13;;;;;;;5.45;3.03;;;358.80;2329.60;;;;;;5048939;28;20483;-64
2023/04/25 02:38:38;;;;;;;4.35;2.72;;;358.70;2329.60;;;;;;5049244;28;20024;-63
2023/04/25 02:41:05;;;;;;;3.95;2.60;;;358.80;2329.60;;;;;;5049080;28;20029;-75
2023/04/25 02:43:31;;;;;;;3.72;2.47;;;358.70;2329.60;;;;;;5049366;28;20024;-65
2023/04/25 02:45:57;;;;;;;4.22;2.80;;;358.70;2329.60;;;;;;5049047;28;20256;-63
2023/04/25 02:48:22;;;;;;;4.68;3.15;;;358.70;2329.60;;;;;;5049272;28;20033;-69
2023/04/25 02:50:48;;;;;;;4.40;2.40;;;358.70;2329.60;;;;;;5048154;28;20041;-62
2023/04/25 02:53:14;;;;;;;4.72;2.97;;;358.60;2329.60;;;;;;5049228;28;20475;-61
2023/04/25 02:55:40;;;;;;;4.85;3.33;;;358.60;2329.60;;;;;;5048619;28;20037;-65
2023/04/25 02:58:05;;;;;;;6.28;3.70;;;358.60;2329.60;;;;;;5049052;28;20025;-61
2023/04/25 03:00:31;;;;;;;4.90;3.22;;;358.60;2329.60;;;;;;5048818;28;20029;-73
2023/04/25 03:02:57;;;;;;;4.32;3.28;;;358.60;2329.60;;;;;;5048836;28;20658;-72
2023/04/25 03:05:23;;;;;;;5.30;3.35;;;358.70;2329.60;;;;;;5048341;28;20023;-61
2023/04/25 03:07:48;;;;;;;6.30;3.70;;;358.60;2329.60;;;;;;5048718;28;20025;-64
2023/04/25 03:10:14;;;;;;;5.82;3.90;;;358.60;2329.60;;;;;;5048279;28;20021;-61
2023/04/25 03:12:40;;;;;;;5.13;4.03;;;358.60;2329.60;;;;;;5049069;28;20028;-61
2023/04/25 03:15:07;;;;;;;7.10;6.47;;;358.60;2329.60;;;;;;5048549;28;20390;-61
2023/04/25 03:17:33;;;;;;;8.57;5.63;;;358.50;2329.60;;;;;;5049098;28;20021;-61
2023/04/25 03:19:58;;;;;;;5.78;3.85;;;358.40;2329.60;;;;;;5048853;28;20554;-77
2023/04/25 03:22:24;;;;;;;5.70;3.53;;;358.40;2329.60;;;;;;5048750;28;20037;-61
2023/04/25 03:24:50;;;;;;;5.47;3.10;;;333.70;2329.60;;;;;;5048121;28;20029;-75
2023/04/25 03:27:17;;;;;;;4.80;3.30;;;358.40;2329.60;;;;;;5048809;28;20120;-77
2023/04/25 03:29:42;;;;;;;6.40;3.75;;;358.40;2329.60;;;;;;5048429;28;20021;-75
2023/04/25 03:32:08;;;;;;;4.90;3.10;;;358.40;2329.60;;;;;;5046915;28;20040;-61
2023/04/25 03:34:34;;;;;;;4.97;2.65;;;358.50;2329.60;;;;;;5048460;28;20103;-61
2023/04/25 03:37:00;;;;;;;7.18;5.25;;;358.50;2329.60;;;;;;5048658;28;20035;-62
2023/04/25 03:39:26;;;;;;;9.88;6.13;;;358.50;2329.60;;;;;;5051636;28;20071;-60
2023/04/25 03:41:52;;;;;;;21.48;10.68;;;358.40;2329.60;;;;;;5051979;28;20076;-65
2023/04/25 03:44:17;;;;;;;16.55;8.43;;;358.40;2329.60;;;;;;5052000;28;20486;-62
2023/04/25 03:46:43;;;;;;;19.00;8.73;;;358.40;2329.60;;;;;;5052272;28;20033;-61
2023/04/25 03:49:09;;;;;;;10.48;5.38;;;358.40;2329.60;;;;;;5051853;28;20100;-62
2023/04/25 03:51:35;;;;;;;12.50;6.18;;;358.40;2329.60;;;;;;5051984;28;20554;-60
2023/04/25 03:54:01;;;;;;;25.08;9.45;;;358.40;2329.60;;;;;;5051962;28;20100;-63
2023/04/25 03:56:26;;;;;;;6.88;3.63;;;358.40;2329.60;;;;;;5052038;28;20037;-61
2023/04/25 03:58:52;;;;;;;4.45;2.85;;;358.40;2329.60;;;;;;5051777;28;20017;-75
2023/04/25 04:01:18;;;;;;;6.93;4.22;;;358.40;2329.60;;;;;;5051719;28;20352;-61
2023/04/25 04:03:43;;;;;;;21.42;9.15;;;358.40;2329.60;;;;;;5051548;28;20029;-60
2023/04/25 04:06:10;;;;;;;10.32;5.03;;;358.50;2329.60;;;;;;5052030;28;20064;-61
2023/04/25 04:08:36;;;;;;;10.18;6.18;;;358.50;2329.60;;;;;;5051173;28;20489;-61
2023/04/25 04:11:02;;;;;;;12.52;6.90;;;358.50;2329.60;;;;;;5051887;28;20033;-62
2023/04/25 04:13:28;;;;;;;5.55;3.95;;;358.50;2329.60;;;;;;5051744;28;20035;-61
2023/04/25 04:15:55;;;;;;;5.05;3.10;;;358.50;2329.60;;;;;;5051719;28;20029;-62
2023/04/25 04:18:21;;;;;;;4.75;3.35;;;333.70;2329.60;;;;;;5051113;28;20074;-61
2023/04/25 04:20:47;;;;;;;4.65;2.72;;;358.40;2329.60;;;;;;5051297;28;20029;-59
2023/04/25 04:23:13;;;;;;;5.13;2.85;;;333.70;2329.60;;;;;;5051419;28;20044;-65
2023/04/25 04:25:39;;;;;;;4.90;2.97;;;333.60;2329.60;;;;;;5039971;28;20068;-67
2023/04/25 04:28:05;;;;;;;7.53;3.55;;;333.60;2329.60;;;;;;5049754;28;20024;-61
2023/04/25 04:30:33;;;;;;;5.25;3.55;;;333.50;2329.60;;;;;;5051122;28;20029;-71
2023/04/25 04:33:00;;;;;;;5.75;3.10;;;333.40;2329.60;;;;;;5051143;28;20021;-62
2023/04/25 04:35:26;;;;;;;4.80;3.53;;;333.40;2329.60;;;;;;5050911;28;20029;-63
2023/04/25 04:37:53;;;;;;;4.00;3.10;;;333.50;2329.60;;;;;;5050987;28;20036;-73
2023/04/25 04:40:18;;;;;;;4.75;3.25;;;333.40;2329.60;;;;;;5050907;28;20084;-61
2023/04/25 04:42:48;;;;;;;5.38;3.45;;;333.40;2329.60;;;;;;5050522;28;20108;-61
2023/04/25 04:45:14;;;;;;;4.18;2.22;;;333.40;2329.60;;;;;;5049194;28;20083;-61
2023/04/25 04:47:40;;;;;;;4.35;2.63;;;333.40;2329.60;;;;;;5036694;28;20029;-61
2023/04/25 04:50:09;;;;;;;4.00;3.25;;;333.40;2329.60;;;;;;5030349;28;20072;-59
2023/04/25 04:52:37;;;;;;;4.40;2.22;;;333.40;2329.60;;;;;;5032734;28;20045;-61
2023/04/25 04:55:07;;;;;;;4.65;2.08;;;333.40;2329.60;;;;;;5049054;28;20063;-63
2023/04/25 04:57:34;;;;;;;2.80;1.88;;;333.40;2329.60;;;;;;5050692;28;20475;-61
2023/04/25 05:00:00;;;;;;;3.08;2.05;;;333.40;2329.60;;;;;;5047321;28;20093;-63
2023/04/25 05:02:26;;;;;;;3.20;1.63;;;333.30;2329.60;;;;;;5050860;28;20016;-61
2023/04/25 05:04:52;;;;;;;3.50;2.05;;;333.20;2329.60;;;;;;5050706;28;20033;-61
2023/04/25 05:07:19;;;;;;;2.35;1.67;;;333.30;2329.60;;;;;;5050711;28;20028;-61
2023/04/25 05:09:45;;;;;;;9.00;2.75;;;333.20;2329.60;;;;;;5050150;28;20025;-63
2023/04/25 05:12:11;;;;;;;23.20;14.48;;;333.10;2329.60;;;;;;5050855;28;20107;-61
2023/04/25 05:14:36;;;;;;;12.18;7.80;;;333.20;2329.60;;;;;;5050344;28;20044;-60
2023/04/25 05:17:04;;;;;;;47.30;30.60;;;333.20;2329.60;;;;;;5050723;28;20021;-72
2023/04/25 05:19:30;;;;;;;12.75;7.40;;;333.10;2329.60;;;;;;5049843;28;20488;-62
2023/04/25 05:21:56;;;;;;;24.08;15.70;;;333.00;2329.60;;;;;;5050187;28;20032;-74
2023/04/25 05:24:22;;;;;;;12.25;8.23;;;333.00;2329.60;;;;;;5049559;28;20028;-60
2023/04/25 05:26:47;;;;;;;10.10;5.00;;;332.90;2329.60;;;;;;5050081;28;20032;-61
2023/04/25 05:29:13;;;;;;;18.35;16.38;;;333.00;2329.60;;;;;;5050039;28;20060;-62
2023/04/25 05:31:39;;;;;;;4.95;2.20;;;333.00;2329.60;;;;;;5050192;28;20028;-72
2023/04/25 05:34:04;;;;;;;3.58;2.28;;;332.80;2329.60;;;;;;5049888;28;20487;-67
2023/04/25 05:36:32;;;;;;;6.80;4.60;;;332.90;2329.60;;;;;;5050035;28;20040;-63
2023/04/25 05:38:57;;;;;;;3.95;2.55;;;332.90;2329.60;;;;;;5049948;28;20029;-71
2023/04/25 05:41:23;;;;;;;3.50;2.45;;;332.90;2329.60;;;;;;5050397;28;20040;-76
2023/04/25 05:43:49;;;;;;;11.15;9.07;;;333.00;2329.60;;;;;;5048371;28;20029;-70
2023/04/25 05:46:16;;;;;;;7.40;6.45;;;332.90;2329.60;;;;;;5030127;28;20101;-60
2023/04/25 05:48:42;;;;;;;7.53;6.75;;;332.90;2329.60;;;;;;5029443;28;20368;-73
2023/04/25 05:51:09;;;;;;;3.88;2.53;;;333.00;2329.60;;;;;;5047412;28;20041;-61
2023/04/25 05:53:34;;;;;;;6.80;5.13;;;332.80;2329.60;;;;;;5049738;28;20087;-67
2023/04/25 05:56:00;;;;;;;5.03;3.38;;;308.10;2304.00;;;;;;5049576;28;20044;-62
2023/04/25 05:58:26;;;;;;;20.05;17.98;;;308.10;2304.00;;;;;;5049833;28;20025;-77
2023/04/25 06:00:52;;;;;;;6.60;5.75;;;308.00;2304.00;;;;;;5047933;28;20051;-60
2023/04/25 06:03:18;;;;;;;5.47;4.70;;;308.00;2304.00;;;;;;5049267;28;20053;-61
2023/04/25 06:05:43;;;;;;;4.00;2.72;;;307.90;2304.00;;;;;;5047511;28;20586;-61
2023/04/25 06:08:10;;;;;;;8.07;6.50;;;307.80;2304.00;;;;;;5029659;28;20368;-65
2023/04/25 06:10:36;;;;;;;7.72;7.03;;;307.80;2304.00;;;;;;5029651;28;20029;-59
2023/04/25 06:13:02;;;;;;;5.70;3.08;;;307.80;2304.00;;;;;;5030002;28;20027;-60
2023/04/25 06:15:28;;;;;;;6.63;3.42;;;307.70;2304.00;;;;;;5029431;28;20033;-63
2023/04/25 06:17:54;;;;;;;4.90;3.67;;;307.80;2304.00;;;;;;5029614;28;20018;-69
2023/04/25 06:20:22;;;;;;;6.50;5.30;;;307.70;2304.00;;;;;;5044776;28;20037;-65
2023/04/25 06:22:49;;;;;;;5.18;3.85;;;307.70;2304.00;;;;;;5043986;28;20033;-65
2023/04/25 06:25:15;;;;;;;10.02;9.13;;;307.60;2304.00;;;;;;5048075;28;20021;-66
2023/04/25 06:27:41;;;;;;;7.88;5.90;;;307.60;2304.00;;;;;;5046309;28;20021;-65
2023/04/25 06:30:07;;;;;;;16.40;14.73;;;307.70;2304.00;;;;;;5046462;28;20482;-64
2023/04/25 06:32:34;;;;;;;13.02;11.38;;;307.90;2304.00;;;;;;5048717;28;20155;-63
2023/04/25 06:35:00;;;;;;;6.43;4.25;;;307.80;2304.00;;;;;;5049329;28;20041;-67
2023/04/25 06:37:26;;;;;;;9.93;7.18;;;307.80;2304.00;;;;;;5048618;28;20356;-70
2023/04/25 06:39:51;;;;;;;81.22;51.90;;;307.80;2304.00;;;;;;5049339;28;20029;-67
2023/04/25 06:42:17;;;;;;;15.18;11.50;;;307.60;2304.00;;;;;;5034841;28;20538;-65
2023/04/25 06:44:43;;;;;;;10.02;7.50;;;307.60;2304.00;;;;;;5048846;28;20033;-65
2023/04/25 06:47:08;;;;;;;4.68;4.13;;;307.50;2304.00;;;;;;5048956;28;20029;-67
2023/04/25 06:49:34;;;;;;;14.80;13.13;;;307.60;2304.00;;;;;;5049166;28;20033;-68
2023/04/25 06:52:00;;;;;;;28.85;22.90;;;307.70;2304.00;;;;;;5048710;28;20075;-65
2023/04/25 06:54:28;;;;;;;15.55;11.73;;;307.80;2304.00;;;;;;5048669;28;20032;-65
2023/04/25 06:56:54;;;;;;;41.78;26.58;;;307.80;2304.00;;;;;;5035056;28;20033;-65
2023/04/25 06:59:20;;;;;;;9.30;6.82;;;307.80;2304.00;;;;;;5037245;28;20477;-64
2023/04/25 07:01:45;;;;;;;10.50;5.63;;;307.90;2304.00;;;;;;5048739;28;20030;-68
2023/04/25 07:04:11;;;;;;;20.13;15.50;;;308.00;2304.00;;;;;;5049147;28;20458;-65
2023/04/25 07:06:42;;;;;;;5.30;4.20;;;308.10;2304.00;;;;;;5048652;28;20459;-65
2023/04/25 07:09:11;;;;;;;8.95;7.95;;;332.80;2329.60;;;;;;5048546;28;20021;-67
2023/04/25 07:11:37;;;;;;;6.78;5.30;;;333.00;2329.60;;;;;;5049546;28;20067;-65
2023/04/25 07:14:03;;;;;;;6.47;4.93;;;333.20;2329.60;;;;;;5052957;28;20498;-65
2023/04/25 07:16:29;;;;;;;9.35;8.35;;;333.20;2329.60;;;;;;5052403;28;20033;-65
2023/04/25 07:18:55;;;;;;;5.95;4.82;;;333.40;2329.60;;;;;;5052514;28;20159;-66
2023/04/25 07:21:20;;;;;;;9.75;4.70;;;333.60;2329.60;;;;;;5052111;28;20029;-66
2023/04/25 07:23:46;;;;;;;9.93;7.72;;;333.60;2329.60;;;;;;5038487;28;20025;-71
2023/04/25 07:26:12;;;;;;;21.05;17.15;;;358.40;2329.60;;;;;;5052412;28;20036;-72
2023/04/25 07:28:38;;;;;;;6.53;4.82;;;358.40;2329.60;;;;;;5052038;28;20025;-70
2023/04/25 07:31:05;;;;;;;5.75;4.60;;;358.50;2329.60;;;;;;5052437;28;20029;-62
2023/04/25 07:33:30;;;;;;;8.13;4.45;;;358.50;2329.60;;;;;;5052087;28;20053;-62
2023/04/25 07:35:56;;;;;;;14.93;11.45;;;358.70;2329.60;;;;;;5051990;28;20924;-62
2023/04/25 07:38:22;;;;;;;8.50;5.38;;;358.70;2329.60;;;;;;5052069;28;20025;-62
2023/04/25 07:40:49;;;;;;;4.65;3.67;;;358.80;2329.60;;;;;;5052414;28;20025;-69
2023/04/25 07:43:16;;;;;;;6.85;4.50;;;358.90;2329.60;;;;;;5052219;28;20021;-62
2023/04/25 07:45:45;;;;;;;7.60;4.82;;;358.70;2329.60;;;;;;5052423;28;20028;-62
2023/04/25 07:48:16;;;;;;;37.03;20.40;;;358.70;2329.60;;;;;;5052093;28;20025;-70
2023/04/25 07:50:41;;;;;;;27.67;18.33;;;358.90;2329.60;;;;;;5051743;28;20036;-71
2023/04/25 07:53:07;;;;;;;10.70;8.40;;;359.10;2329.60;;;;;;5051746;28;20379;-63
2023/04/25 07:55:33;;;;;;;12.23;8.02;;;359.00;2329.60;;;;;;5048890;28;20033;-66
2023/04/25 07:57:58;;;;;;;26.90;17.35;;;358.80;2329.60;;;;;;5029878;28;20022;-62
2023/04/25 08:00:24;;;;;;;4.07;2.58;;;358.90;2329.60;;;;;;5030194;28;20033;-62
2023/04/25 08:02:50;;;;;;;16.00;9.38;;;359.00;2329.60;;;;;;5030243;28;20033;-63
2023/04/25 08:05:16;;;;;;;6.72;5.22;;;359.20;2329.60;;;;;;5029937;28;20463;-63
2023/04/25 08:07:43;;;;;;;5.00;3.25;;;359.30;2329.60;;;;;;5030232;28;20383;-72
2023/04/25 08:10:09;;;;;;;10.77;7.22;;;384.00;2329.60;;;;;;5029859;28;20017;-71
2023/04/25 08:12:35;;;;;;;18.33;13.85;;;384.30;2329.60;;;;;;5043973;28;20107;-63
2023/04/25 08:15:01;;;;;;;4.82;3.40;;;384.60;2329.60;;;;;;5051431;28;20048;-63
2023/04/25 08:17:27;;;;;;;4.85;3.35;;;384.60;2329.60;;;;;;5051512;28;20037;-63
2023/04/25 08:19:52;;;;;;;6.40;4.18;;;384.60;2329.60;;;;;;5051037;28;20025;-72
2023/04/25 08:22:18;;;;;;;5.05;3.15;;;384.70;2329.60;;;;;;5051113;28;20033;-65
2023/04/25 08:24:44;;;;;;;5.10;2.83;;;384.30;2329.60;;;;;;5050507;28;20029;-63
2023/04/25 08:27:09;;;;;;;6.28;3.88;;;384.40;2329.60;;;;;;5051360;28;20032;-70
2023/04/25 08:29:35;;;;;;;8.73;5.35;;;384.50;2329.60;;;;;;5038089;28;20463;-62
2023/04/25 08:32:01;;;;;;;6.65;4.15;;;384.70;2329.60;;;;;;5050227;28;20036;-70
2023/04/25 08:34:27;;;;;;;13.75;10.23;;;409.70;2355.20;;;;;;5051132;28;20021;-73
2023/04/25 08:36:52;;;;;;;12.50;7.25;;;410.00;2355.20;;;;;;5038659;28;20032;-71
2023/04/25 08:39:18;;;;;;;18.15;11.32;;;410.30;2355.20;;;;;;5050739;28;20033;-73
2023/04/25 08:41:45;;;;;;;6.78;4.35;;;435.30;2355.20;;;;;;5050946;28;20028;-65
2023/04/25 08:44:11;;;;;;;8.85;5.60;;;435.60;2355.20;;;;;;5050810;28;20013;-63
2023/04/25 08:46:41;;;;;;;5.13;3.08;;;436.10;2304.00;;;;;;5050924;28;20029;-64
2023/04/25 08:49:08;;;;;;;3.53;2.80;;;460.90;2252.80;;;;;;5050489;28;20021;-62
2023/04/25 08:51:39;;;;;;;4.28;2.80;;;460.90;2278.40;;;;;;5035189;28;20058;-65
2023/04/25 08:54:10;;;;;;;6.97;4.07;;;460.90;2278.40;;;;;;5039137;28;20472;-72
2023/04/25 08:56:39;;;;;;;15.70;14.13;;;461.20;2227.20;;;;;;5031258;28;20383;-65
2023/04/25 08:59:07;;;;;;;8.55;3.20;;;461.00;2176.00;;;;;;5036842;28;20020;-64
2023/04/25 09:01:35;;;;;;;5.82;3.63;;;461.30;2150.40;;;;;;5051133;28;20024;-74
2023/04/25 09:04:00;;;;;;;4.38;2.88;;;461.70;2124.80;;;;;;5022991;28;20009;-63
2023/04/25 09:06:28;;;;;;;4.82;3.17;;;461.70;2099.20;;;;;;5030073;28;20029;-73
2023/04/25 09:08:54;;;;;;;5.25;2.70;;;461.70;2073.60;;;;;;5039627;28;20091;-63
2023/04/25 09:11:20;;;;;;;4.70;3.03;;;486.40;2124.80;;;;;;5050519;28;20025;-64
2023/04/25 09:13:46;;;;;;;5.72;3.10;;;486.70;2099.20;;;;;;5050761;28;20057;-69
2023/04/25 09:16:11;;;;;;;5.53;3.80;;;486.50;2073.60;;;;;;5050357;28;20033;-71
2023/04/25 09:18:37;;;;;;;33.10;23.65;;;461.50;2048.00;;;;;;5036584;28;20025;-63
2023/04/25 09:21:12;;;;;;;23.77;17.88;;;461.20;2073.60;;;;;;5037049;28;20467;-63
2023/04/25 09:23:45;;;;;;;8.40;6.03;;;461.00;2073.60;;;;;;5035632;28;20395;-63
2023/04/25 09:26:15;;;;;;;46.45;29.58;;;461.20;2099.20;;;;;;5050467;28;20475;-60
2023/04/25 09:28:42;;;;;;;12.23;7.80;;;461.10;2124.80;;;;;;5044944;28;20402;-69
2023/04/25 09:31:11;;;;;;;9.13;3.97;;;460.90;2124.80;;;;;;5029856;28;20025;-62
2023/04/25 09:33:37;;;;;;;5.03;3.28;;;436.00;2124.80;;;;;;5030414;28;20018;-63
2023/04/25 09:36:07;;;;;;;51.00;28.98;;;435.90;2150.40;;;;;;5031719;28;20042;-62
2023/04/25 09:38:41;;;;;;;33.22;22.63;;;435.90;2099.20;;;;;;5050154;28;20358;-67
2023/04/25 09:41:09;;;;;;;17.40;10.15;;;435.90;2073.60;;;;;;5048633;28;20074;-63
2023/04/25 09:43:35;;;;;;;35.00;23.67;;;435.60;2124.80;;;;;;5029450;28;20064;-62
2023/04/25 09:46:01;;;;;;;12.70;10.00;;;435.50;2150.40;;;;;;5042990;28;20029;-63
2023/04/25 09:48:28;;;;;;;9.02;5.20;;;435.60;2176.00;;;;;;5030068;28;20022;-62
2023/04/25 09:51:11;;;;;;;9.10;6.68;;;435.30;2176.00;;;;;;5029418;28;20046;-63
2023/04/25 09:53:51;;;;;;;10.98;8.00;;;435.60;2201.60;;;;;;5031544;28;20072;-62
2023/04/25 09:56:18;;;;;;;12.65;9.27;;;436.00;2176.00;;;;;;5049529;28;20064;-69
2023/04/25 09:58:45;;;;;;;34.10;21.38;;;461.10;2176.00;;;;;;5023537;28;20025;-62
2023/04/25 10:01:11;;;;;;;6.65;5.35;;;461.50;2124.80;;;;;;5049936;28;20032;-64
2023/04/25 10:03:39;;;;;;;5.13;3.60;;;486.70;2073.60;;;;;;5049330;28;20017;-69
2023/04/25 10:06:14;;;;;;;5.70;4.07;;;486.90;2099.20;;;;;;5049558;28;20029;-64
2023/04/25 10:08:41;;;;;;;15.98;8.75;;;486.70;2048.00;;;;;;5049685;28;20065;-66
2023/04/25 10:11:08;;;;;;;6.32;4.25;;;486.90;1971.20;;;;;;5041325;28;20029;-68
2023/04/25 10:13:35;;;;;;;26.40;19.25;;;487.00;1996.80;;;;;;5041933;28;20388;-63
2023/04/25 10:16:03;;;;;;;237.35;156.27;;;512.00;1920.00;;;;;;5029237;28;20044;-69
2023/04/25 10:18:30;;;;;;;86.82;48.50;;;512.30;1894.40;;;;;;5030752;28;20510;-69
2023/04/25 10:21:01;;;;;;;9.13;6.95;;;512.60;1843.20;;;;;;5037685;28;20123;-62
2023/04/25 10:23:28;;;;;;;5.85;4.70;;;512.90;1894.40;;;;;;5032720;28;20034;-63
2023/04/25 10:25:55;;;;;;;13.32;8.48;;;512.30;1894.40;;;;;;5043284;28;20479;-62
2023/04/25 10:28:21;;;;;;;11.75;8.27;;;512.00;1894.40;;;;;;5034366;28;20087;-70
2023/04/25 10:31:08;;;;;;;25.60;16.10;;;512.30;1843.20;;;;;;5028593;28;20041;-71
2023/04/25 10:33:37;;;;;;;9.10;6.70;;;512.10;1843.20;;;;;;5028061;28;20428;-63
2023/04/25 10:36:13;;;;;;;57.83;47.40;;;487.20;1868.80;;;;;;5049182;28;20554;-74
2023/04/25 10:38:40;;;;;;;6.80;5.90;;;487.00;1894.40;;;;;;5048967;28;20047;-62
2023/04/25 10:41:10;;;;;;;14.90;13.35;;;486.90;1920.00;;;;;;5049153;28;20083;-62
2023/04/25 10:43:41;;;;;;;6.93;4.60;;;487.10;1894.40;;;;;;5049116;28;20029;-64
2023/04/25 10:46:28;;;;;;;7.43;5.50;;;486.80;1868.80;;;;;;5043957;28;20037;-63
2023/04/25 10:48:59;;;;;;;17.00;12.73;;;487.10;1843.20;;;;;;5025206;28;20078;-63
2023/04/25 10:51:31;;;;;;;8.48;4.32;;;487.20;1843.20;;;;;;5028514;28;20048;-62
2023/04/25 10:54:00;;;;;;;51.53;43.67;;;487.10;1868.80;;;;;;5041039;28;20775;-68
2023/04/25 10:56:39;;;;;;;12.18;10.80;;;487.10;1843.20;;;;;;5028341;28;20095;-69
2023/04/25 10:59:11;;;;;;;9.43;8.43;;;487.30;1868.80;;;;;;5036620;28;20017;-63
2023/04/25 11:01:38;;;;;;;7.78;6.57;;;512.20;1843.20;;;;;;5048081;28;20029;-62
2023/04/25 11:04:04;;;;;;;8.75;5.78;;;512.30;1843.20;;;;;;5048309;28;20063;-68
2023/04/25 11:06:33;;;;;;;23.23;18.05;;;512.30;1817.60;;;;;;5047874;28;20431;-74
2023/04/25 11:09:01;;;;;;;3.97;3.00;;;512.30;1817.60;;;;;;5047818;28;20060;-69
2023/04/25 11:11:30;;;;;;;33.42;25.02;;;487.30;1817.60;;;;;;5047806;28;20067;-64
2023/04/25 11:13:55;;;;;;;9.18;7.75;;;487.10;1817.60;;;;;;5048270;28;20112;-70
2023/04/25 11:16:25;;;;;;;19.48;11.50;;;486.80;1843.20;;;;;;5047878;28;20547;-72
2023/04/25 11:18:50;;;;;;;29.70;20.13;;;486.80;1843.20;;;;;;5047956;28;20025;-63
2023/04/25 11:21:16;;;;;;;6.63;4.72;;;486.70;1894.40;;;;;;5047117;28;20383;-63
2023/04/25 11:23:46;;;;;;;6.25;3.90;;;486.70;1894.40;;;;;;5029382;28;20124;-62
2023/04/25 11:26:13;;;;;;;17.02;10.35;;;486.50;1894.40;;;;;;5041506;28;20055;-65
2023/04/25 11:28:39;;;;;;;8.00;7.05;;;486.40;1894.40;;;;;;5035385;28;20033;-62
2023/04/25 11:31:05;;;;;;;33.00;22.58;;;486.60;1894.40;;;;;;5048720;28;20037;-62
2023/04/25 11:33:31;;;;;;;17.15;13.57;;;461.70;1894.40;;;;;;5048552;28;20025;-64
2023/04/25 11:35:56;;;;;;;6.03;4.22;;;486.40;1894.40;;;;;;5048137;28;20032;-64
2023/04/25 11:38:24;;;;;;;10.80;5.60;;;486.40;1894.40;;;;;;5047162;28;20020;-63
2023/04/25 11:40:54;;;;;;;14.70;10.88;;;486.50;1920.00;;;;;;5027708;28;20252;-64
2023/04/25 11:43:21;;;;;;;21.02;15.65;;;486.80;1868.80;;;;;;5028656;28;20036;-63
2023/04/25 11:45:52;;;;;;;25.13;19.15;;;487.10;1843.20;;;;;;5041957;28;20140;-64
2023/04/25 11:48:18;;;;;;;15.52;9.18;;;512.10;1792.00;;;;;;5038304;28;20056;-63
2023/04/25 11:50:46;;;;;;;11.15;9.88;;;512.20;1792.00;;;;;;5027258;28;20122;-62
2023/04/25 11:53:12;;;;;;;7.18;6.05;;;512.50;1766.40;;;;;;5028493;28;20025;-64
2023/04/25 11:55:39;;;;;;;21.50;10.63;;;512.00;1817.60;;;;;;5027820;28;20034;-70
2023/04/25 11:58:05;;;;;;;5.35;3.67;;;512.10;1843.20;;;;;;5028263;28;20067;-64
2023/04/25 12:00:32;;;;;;;4.95;4.03;;;512.30;1792.00;;;;;;5049607;28;20037;-63
2023/04/25 12:02:58;;;;;;;5.85;4.93;;;512.30;1792.00;;;;;;5051815;28;20036;-63
2023/04/25 12:05:26;;;;;;;7.65;5.28;;;512.70;1792.00;;;;;;5051610;28;20025;-72
2023/04/25 12:07:52;;;;;;;10.05;7.75;;;512.50;1792.00;;;;;;5051655;28;20397;-73
2023/04/25 12:10:20;;;;;;;7.60;6.53;;;512.30;1792.00;;;;;;5051259;28;20028;-73
2023/04/25 12:12:47;;;;;;;23.30;18.77;;;512.60;1792.00;;;;;;5051587;28;20075;-64